sensor_id;sensor_type;location;lat;lon;timestamp;temperature;humidity
69932;DHT22;57243;52.064;5.116;2023-06-10T00:01:37;21.30;54.30
69932;DHT22;57243;52.064;5.116;2023-06-10T00:04:03;21.30;54.10
69932;DHT22;57243;52.064;5.116;2023-06-10T00:06:29;21.30;54.30
69932;DHT22;57243;52.064;5.116;2023-06-10T00:09:04;21.30;54.10
69932;DHT22;57243;52.064;5.116;2023-06-10T00:11:31;21.30;53.80
69932;DHT22;57243;52.064;5.116;2023-06-10T00:13:56;21.30;53.90
69932;DHT22;57243;52.064;5.116;2023-06-10T00:16:22;21.30;54.20
69932;DHT22;57243;52.064;5.116;2023-06-10T00:18:47;21.30;54.30
69932;DHT22;57243;52.064;5.116;2023-06-10T00:21:14;21.30;53.90
69932;DHT22;57243;52.064;5.116;2023-06-10T00:23:39;21.30;54.20
69932;DHT22;57243;52.064;5.116;2023-06-10T00:26:06;21.30;53.80
69932;DHT22;57243;52.064;5.116;2023-06-10T00:28:32;21.30;53.90
69932;DHT22;57243;52.064;5.116;2023-06-10T00:30:57;21.30;53.70
69932;DHT22;57243;52.064;5.116;2023-06-10T00:33:23;21.30;54.00
69932;DHT22;57243;52.064;5.116;2023-06-10T00:35:48;21.30;54.00
69932;DHT22;57243;52.064;5.116;2023-06-10T00:38:14;21.30;54.00
69932;DHT22;57243;52.064;5.116;2023-06-10T00:40:40;21.30;54.00
69932;DHT22;57243;52.064;5.116;2023-06-10T00:43:06;21.30;54.10
69932;DHT22;57243;52.064;5.116;2023-06-10T00:45:31;21.30;54.20
69932;DHT22;57243;52.064;5.116;2023-06-10T00:47:57;21.30;53.60
69932;DHT22;57243;52.064;5.116;2023-06-10T00:50:23;21.30;54.10
69932;DHT22;57243;52.064;5.116;2023-06-10T00:52:48;21.30;54.20
69932;DHT22;57243;52.064;5.116;2023-06-10T00:55:16;21.30;54.10
69932;DHT22;57243;52.064;5.116;2023-06-10T00:57:42;21.30;54.20
69932;DHT22;57243;52.064;5.116;2023-06-10T01:00:10;21.30;54.10
69932;DHT22;57243;52.064;5.116;2023-06-10T01:02:35;21.30;54.10
69932;DHT22;57243;52.064;5.116;2023-06-10T01:05:01;21.30;54.10
69932;DHT22;57243;52.064;5.116;2023-06-10T01:07:48;21.30;53.90
69932;DHT22;57243;52.064;5.116;2023-06-10T01:10:38;21.30;54.10
69932;DHT22;57243;52.064;5.116;2023-06-10T01:13:02;21.30;54.20
69932;DHT22;57243;52.064;5.116;2023-06-10T01:15:31;21.30;53.90
69932;DHT22;57243;52.064;5.116;2023-06-10T01:17:57;21.30;53.90
69932;DHT22;57243;52.064;5.116;2023-06-10T01:20:27;21.30;54.00
69932;DHT22;57243;52.064;5.116;2023-06-10T01:22:54;21.30;53.90
69932;DHT22;57243;52.064;5.116;2023-06-10T01:25:20;21.30;53.80
69932;DHT22;57243;52.064;5.116;2023-06-10T01:30:24;21.30;53.50
69932;DHT22;57243;52.064;5.116;2023-06-10T01:32:55;21.20;53.10
69932;DHT22;57243;52.064;5.116;2023-06-10T01:35:23;21.20;53.50
69932;DHT22;57243;52.064;5.116;2023-06-10T01:37:51;21.20;53.30
69932;DHT22;57243;52.064;5.116;2023-06-10T01:40:18;21.20;53.40
69932;DHT22;57243;52.064;5.116;2023-06-10T01:42:44;21.20;53.30
69932;DHT22;57243;52.064;5.116;2023-06-10T01:45:10;21.20;53.00
69932;DHT22;57243;52.064;5.116;2023-06-10T01:47:36;21.20;53.30
69932;DHT22;57243;52.064;5.116;2023-06-10T01:50:01;21.20;53.00
69932;DHT22;57243;52.064;5.116;2023-06-10T01:52:27;21.20;53.20
69932;DHT22;57243;52.064;5.116;2023-06-10T01:54:52;21.20;53.00
69932;DHT22;57243;52.064;5.116;2023-06-10T01:57:18;21.20;53.00
69932;DHT22;57243;52.064;5.116;2023-06-10T01:59:43;21.20;52.90
69932;DHT22;57243;52.064;5.116;2023-06-10T02:02:10;21.20;53.10
69932;DHT22;57243;52.064;5.116;2023-06-10T02:04:36;21.20;52.90
69932;DHT22;57243;52.064;5.116;2023-06-10T02:07:01;21.20;52.90
69932;DHT22;57243;52.064;5.116;2023-06-10T02:09:32;21.20;52.90
69932;DHT22;57243;52.064;5.116;2023-06-10T02:12:00;21.20;52.90
69932;DHT22;57243;52.064;5.116;2023-06-10T02:14:26;21.20;52.90
69932;DHT22;57243;52.064;5.116;2023-06-10T02:16:51;21.20;52.80
69932;DHT22;57243;52.064;5.116;2023-06-10T02:19:21;21.20;52.80
69932;DHT22;57243;52.064;5.116;2023-06-10T02:21:47;21.20;52.80
69932;DHT22;57243;52.064;5.116;2023-06-10T02:24:13;21.20;52.80
69932;DHT22;57243;52.064;5.116;2023-06-10T02:26:38;21.20;52.80
69932;DHT22;57243;52.064;5.116;2023-06-10T02:29:04;21.20;52.70
69932;DHT22;57243;52.064;5.116;2023-06-10T02:31:29;21.10;52.80
69932;DHT22;57243;52.064;5.116;2023-06-10T02:33:55;21.20;52.70
69932;DHT22;57243;52.064;5.116;2023-06-10T02:36:21;21.20;52.70
69932;DHT22;57243;52.064;5.116;2023-06-10T02:38:49;21.20;52.80
69932;DHT22;57243;52.064;5.116;2023-06-10T02:41:15;21.20;52.60
69932;DHT22;57243;52.064;5.116;2023-06-10T02:43:40;21.10;52.70
69932;DHT22;57243;52.064;5.116;2023-06-10T02:46:06;21.10;52.60
69932;DHT22;57243;52.064;5.116;2023-06-10T02:48:38;21.10;52.60
69932;DHT22;57243;52.064;5.116;2023-06-10T02:51:05;21.10;52.80
69932;DHT22;57243;52.064;5.116;2023-06-10T02:53:30;21.10;52.60
69932;DHT22;57243;52.064;5.116;2023-06-10T02:55:56;21.10;52.50
69932;DHT22;57243;52.064;5.116;2023-06-10T02:58:21;21.10;52.70
69932;DHT22;57243;52.064;5.116;2023-06-10T03:00:47;21.10;52.70
69932;DHT22;57243;52.064;5.116;2023-06-10T03:03:13;21.10;52.60
69932;DHT22;57243;52.064;5.116;2023-06-10T03:05:38;21.10;52.60
69932;DHT22;57243;52.064;5.116;2023-06-10T03:08:04;21.10;52.70
69932;DHT22;57243;52.064;5.116;2023-06-10T03:10:29;21.10;52.70
69932;DHT22;57243;52.064;5.116;2023-06-10T03:12:55;21.10;52.60
69932;DHT22;57243;52.064;5.116;2023-06-10T03:15:20;21.10;52.60
69932;DHT22;57243;52.064;5.116;2023-06-10T03:17:46;21.10;52.60
69932;DHT22;57243;52.064;5.116;2023-06-10T03:20:12;21.10;52.80
69932;DHT22;57243;52.064;5.116;2023-06-10T03:22:40;21.10;52.70
69932;DHT22;57243;52.064;5.116;2023-06-10T03:25:06;21.10;52.80
69932;DHT22;57243;52.064;5.116;2023-06-10T03:27:33;21.10;52.70
69932;DHT22;57243;52.064;5.116;2023-06-10T03:30:00;21.10;52.70
69932;DHT22;57243;52.064;5.116;2023-06-10T03:32:25;21.10;52.80
69932;DHT22;57243;52.064;5.116;2023-06-10T03:34:51;21.10;52.80
69932;DHT22;57243;52.064;5.116;2023-06-10T03:37:22;21.10;52.70
69932;DHT22;57243;52.064;5.116;2023-06-10T03:39:48;21.10;52.80
69932;DHT22;57243;52.064;5.116;2023-06-10T03:42:14;21.10;52.90
69932;DHT22;57243;52.064;5.116;2023-06-10T03:44:39;21.10;52.90
69932;DHT22;57243;52.064;5.116;2023-06-10T03:47:05;21.00;52.90
69932;DHT22;57243;52.064;5.116;2023-06-10T03:49:31;21.10;53.00
69932;DHT22;57243;52.064;5.116;2023-06-10T03:51:56;21.10;53.00
69932;DHT22;57243;52.064;5.116;2023-06-10T03:54:22;21.00;53.00
69932;DHT22;57243;52.064;5.116;2023-06-10T03:56:47;21.10;53.10
69932;DHT22;57243;52.064;5.116;2023-06-10T03:59:16;21.10;53.00
69932;DHT22;57243;52.064;5.116;2023-06-10T04:01:42;21.10;53.20
69932;DHT22;57243;52.064;5.116;2023-06-10T04:04:08;21.10;53.30
69932;DHT22;57243;52.064;5.116;2023-06-10T04:06:34;21.10;53.30
69932;DHT22;57243;52.064;5.116;2023-06-10T04:09:00;21.10;53.20
69932;DHT22;57243;52.064;5.116;2023-06-10T04:11:25;21.00;53.20
69932;DHT22;57243;52.064;5.116;2023-06-10T04:13:51;21.10;53.40
69932;DHT22;57243;52.064;5.116;2023-06-10T04:16:16;21.10;53.30
69932;DHT22;57243;52.064;5.116;2023-06-10T04:18:42;21.10;53.40
69932;DHT22;57243;52.064;5.116;2023-06-10T04:21:07;21.10;53.40
69932;DHT22;57243;52.064;5.116;2023-06-10T04:23:35;21.10;53.40
69932;DHT22;57243;52.064;5.116;2023-06-10T04:26:00;21.10;53.50
69932;DHT22;57243;52.064;5.116;2023-06-10T04:28:26;21.10;53.40
69932;DHT22;57243;52.064;5.116;2023-06-10T04:30:53;21.10;53.20
69932;DHT22;57243;52.064;5.116;2023-06-10T04:33:18;21.10;53.10
69932;DHT22;57243;52.064;5.116;2023-06-10T04:35:44;21.10;53.20
69932;DHT22;57243;52.064;5.116;2023-06-10T04:38:09;21.10;53.10
69932;DHT22;57243;52.064;5.116;2023-06-10T04:40:35;21.10;53.20
69932;DHT22;57243;52.064;5.116;2023-06-10T04:43:00;21.10;53.20
69932;DHT22;57243;52.064;5.116;2023-06-10T04:45:26;21.10;53.00
69932;DHT22;57243;52.064;5.116;2023-06-10T04:47:52;21.10;53.20
69932;DHT22;57243;52.064;5.116;2023-06-10T04:50:17;21.10;53.10
69932;DHT22;57243;52.064;5.116;2023-06-10T04:52:42;21.10;52.90
69932;DHT22;57243;52.064;5.116;2023-06-10T04:55:09;21.10;53.00
69932;DHT22;57243;52.064;5.116;2023-06-10T04:57:36;21.10;52.80
69932;DHT22;57243;52.064;5.116;2023-06-10T05:00:01;21.10;52.90
69932;DHT22;57243;52.064;5.116;2023-06-10T05:02:30;21.10;53.20
69932;DHT22;57243;52.064;5.116;2023-06-10T05:04:56;21.10;53.20
69932;DHT22;57243;52.064;5.116;2023-06-10T05:07:23;21.10;53.00
69932;DHT22;57243;52.064;5.116;2023-06-10T05:09:48;21.20;53.10
69932;DHT22;57243;52.064;5.116;2023-06-10T05:12:14;21.20;53.30
69932;DHT22;57243;52.064;5.116;2023-06-10T05:14:39;21.20;53.40
69932;DHT22;57243;52.064;5.116;2023-06-10T05:17:05;21.20;53.60
69932;DHT22;57243;52.064;5.116;2023-06-10T05:19:33;21.20;53.40
69932;DHT22;57243;52.064;5.116;2023-06-10T05:22:01;21.20;53.60
69932;DHT22;57243;52.064;5.116;2023-06-10T05:24:33;21.20;53.50
69932;DHT22;57243;52.064;5.116;2023-06-10T05:26:58;21.20;53.70
69932;DHT22;57243;52.064;5.116;2023-06-10T05:29:24;21.20;53.80
69932;DHT22;57243;52.064;5.116;2023-06-10T05:31:51;21.20;53.80
69932;DHT22;57243;52.064;5.116;2023-06-10T05:34:16;21.20;54.00
69932;DHT22;57243;52.064;5.116;2023-06-10T05:36:42;21.20;54.30
69932;DHT22;57243;52.064;5.116;2023-06-10T05:39:08;21.30;54.50
69932;DHT22;57243;52.064;5.116;2023-06-10T05:41:34;21.40;54.60
69932;DHT22;57243;52.064;5.116;2023-06-10T05:44:00;21.50;55.00
69932;DHT22;57243;52.064;5.116;2023-06-10T05:46:25;21.50;54.90
69932;DHT22;57243;52.064;5.116;2023-06-10T05:48:51;21.40;55.30
69932;DHT22;57243;52.064;5.116;2023-06-10T05:51:16;21.40;55.50
69932;DHT22;57243;52.064;5.116;2023-06-10T05:53:42;21.40;54.50
69932;DHT22;57243;52.064;5.116;2023-06-10T05:56:07;21.40;55.80
69932;DHT22;57243;52.064;5.116;2023-06-10T05:58:33;21.30;55.80
69932;DHT22;57243;52.064;5.116;2023-06-10T06:00:58;21.30;55.00
69932;DHT22;57243;52.064;5.116;2023-06-10T06:03:24;21.40;56.10
69932;DHT22;57243;52.064;5.116;2023-06-10T06:05:50;21.40;56.00
69932;DHT22;57243;52.064;5.116;2023-06-10T06:08:15;21.50;56.30
69932;DHT22;57243;52.064;5.116;2023-06-10T06:10:46;21.40;55.70
69932;DHT22;57243;52.064;5.116;2023-06-10T06:13:13;21.40;54.30
69932;DHT22;57243;52.064;5.116;2023-06-10T06:15:38;21.30;54.00
69932;DHT22;57243;52.064;5.116;2023-06-10T06:18:04;21.30;53.80
69932;DHT22;57243;52.064;5.116;2023-06-10T06:20:29;21.20;53.80
69932;DHT22;57243;52.064;5.116;2023-06-10T06:22:55;21.20;53.70
69932;DHT22;57243;52.064;5.116;2023-06-10T06:25:20;21.20;53.70
69932;DHT22;57243;52.064;5.116;2023-06-10T06:27:46;21.20;53.70
69932;DHT22;57243;52.064;5.116;2023-06-10T06:30:11;21.20;53.80
69932;DHT22;57243;52.064;5.116;2023-06-10T06:32:37;21.20;54.10
69932;DHT22;57243;52.064;5.116;2023-06-10T06:35:03;21.20;53.80
69932;DHT22;57243;52.064;5.116;2023-06-10T06:37:30;21.20;53.80
69932;DHT22;57243;52.064;5.116;2023-06-10T06:39:55;21.20;53.90
69932;DHT22;57243;52.064;5.116;2023-06-10T06:42:21;21.20;54.10
69932;DHT22;57243;52.064;5.116;2023-06-10T06:44:46;21.20;54.20
69932;DHT22;57243;52.064;5.116;2023-06-10T06:47:12;21.20;53.90
69932;DHT22;57243;52.064;5.116;2023-06-10T06:49:38;21.20;54.00
69932;DHT22;57243;52.064;5.116;2023-06-10T06:52:03;21.20;54.00
69932;DHT22;57243;52.064;5.116;2023-06-10T06:54:29;21.30;53.90
69932;DHT22;57243;52.064;5.116;2023-06-10T06:56:55;21.30;53.90
69932;DHT22;57243;52.064;5.116;2023-06-10T06:59:20;21.30;53.90
69932;DHT22;57243;52.064;5.116;2023-06-10T07:01:46;21.30;54.00
69932;DHT22;57243;52.064;5.116;2023-06-10T07:04:11;21.30;53.90
69932;DHT22;57243;52.064;5.116;2023-06-10T07:06:37;21.40;53.50
69932;DHT22;57243;52.064;5.116;2023-06-10T07:09:03;21.40;53.50
69932;DHT22;57243;52.064;5.116;2023-06-10T07:11:30;21.40;53.60
69932;DHT22;57243;52.064;5.116;2023-06-10T07:13:55;21.40;53.80
69932;DHT22;57243;52.064;5.116;2023-06-10T07:16:21;21.40;53.90
69932;DHT22;57243;52.064;5.116;2023-06-10T07:18:47;21.40;53.80
69932;DHT22;57243;52.064;5.116;2023-06-10T07:21:12;21.40;53.70
69932;DHT22;57243;52.064;5.116;2023-06-10T07:23:41;21.40;53.60
69932;DHT22;57243;52.064;5.116;2023-06-10T07:26:06;21.40;53.40
69932;DHT22;57243;52.064;5.116;2023-06-10T07:28:33;21.50;53.40
69932;DHT22;57243;52.064;5.116;2023-06-10T07:30:58;21.50;53.30
69932;DHT22;57243;52.064;5.116;2023-06-10T07:33:24;21.50;53.30
69932;DHT22;57243;52.064;5.116;2023-06-10T07:35:49;21.50;53.70
69932;DHT22;57243;52.064;5.116;2023-06-10T07:38:17;21.50;53.70
69932;DHT22;57243;52.064;5.116;2023-06-10T07:40:42;21.60;53.80
69932;DHT22;57243;52.064;5.116;2023-06-10T07:43:08;21.60;53.40
69932;DHT22;57243;52.064;5.116;2023-06-10T07:45:33;21.60;53.40
69932;DHT22;57243;52.064;5.116;2023-06-10T07:47:59;21.60;53.50
69932;DHT22;57243;52.064;5.116;2023-06-10T07:50:24;21.60;53.50
69932;DHT22;57243;52.064;5.116;2023-06-10T07:52:51;21.60;53.50
69932;DHT22;57243;52.064;5.116;2023-06-10T07:55:17;21.70;53.10
69932;DHT22;57243;52.064;5.116;2023-06-10T07:57:43;21.70;52.90
69932;DHT22;57243;52.064;5.116;2023-06-10T08:00:09;21.60;53.10
69932;DHT22;57243;52.064;5.116;2023-06-10T08:02:34;21.70;53.20
69932;DHT22;57243;52.064;5.116;2023-06-10T08:05:00;21.70;53.10
69932;DHT22;57243;52.064;5.116;2023-06-10T08:07:26;21.70;53.00
69932;DHT22;57243;52.064;5.116;2023-06-10T08:09:51;21.80;53.00
69932;DHT22;57243;52.064;5.116;2023-06-10T08:12:17;21.80;53.00
69932;DHT22;57243;52.064;5.116;2023-06-10T08:14:42;21.80;53.00
69932;DHT22;57243;52.064;5.116;2023-06-10T08:17:07;21.80;53.20
69932;DHT22;57243;52.064;5.116;2023-06-10T08:19:33;21.80;54.30
69932;DHT22;57243;52.064;5.116;2023-06-10T08:21:59;21.80;54.00
69932;DHT22;57243;52.064;5.116;2023-06-10T08:24:24;21.80;54.20
69932;DHT22;57243;52.064;5.116;2023-06-10T08:26:50;21.80;54.30
69932;DHT22;57243;52.064;5.116;2023-06-10T08:29:15;21.70;54.40
69932;DHT22;57243;52.064;5.116;2023-06-10T08:31:44;21.70;54.40
69932;DHT22;57243;52.064;5.116;2023-06-10T08:34:09;21.70;54.70
69932;DHT22;57243;52.064;5.116;2023-06-10T08:36:35;21.70;54.60
69932;DHT22;57243;52.064;5.116;2023-06-10T08:39:01;21.70;54.80
69932;DHT22;57243;52.064;5.116;2023-06-10T08:41:28;21.70;54.80
69932;DHT22;57243;52.064;5.116;2023-06-10T08:43:56;21.70;54.90
69932;DHT22;57243;52.064;5.116;2023-06-10T08:46:24;21.60;54.90
69932;DHT22;57243;52.064;5.116;2023-06-10T08:48:50;21.60;54.80
69932;DHT22;57243;52.064;5.116;2023-06-10T08:51:17;21.60;54.80
69932;DHT22;57243;52.064;5.116;2023-06-10T08:53:47;21.70;54.70
69932;DHT22;57243;52.064;5.116;2023-06-10T08:56:14;21.70;54.80
69932;DHT22;57243;52.064;5.116;2023-06-10T08:58:40;21.70;54.70
69932;DHT22;57243;52.064;5.116;2023-06-10T09:01:08;21.70;54.80
69932;DHT22;57243;52.064;5.116;2023-06-10T09:03:36;21.70;54.70
69932;DHT22;57243;52.064;5.116;2023-06-10T09:06:04;21.70;54.60
69932;DHT22;57243;52.064;5.116;2023-06-10T09:08:30;21.60;54.70
69932;DHT22;57243;52.064;5.116;2023-06-10T09:10:56;21.60;54.70
69932;DHT22;57243;52.064;5.116;2023-06-10T09:13:22;21.60;54.70
69932;DHT22;57243;52.064;5.116;2023-06-10T09:15:48;21.60;54.80
69932;DHT22;57243;52.064;5.116;2023-06-10T09:18:16;21.60;54.80
69932;DHT22;57243;52.064;5.116;2023-06-10T09:20:42;21.60;54.70
69932;DHT22;57243;52.064;5.116;2023-06-10T09:23:08;21.60;54.70
69932;DHT22;57243;52.064;5.116;2023-06-10T09:25:34;21.60;54.80
69932;DHT22;57243;52.064;5.116;2023-06-10T09:28:00;21.60;54.80
69932;DHT22;57243;52.064;5.116;2023-06-10T09:30:26;21.60;54.80
69932;DHT22;57243;52.064;5.116;2023-06-10T09:32:56;21.70;54.70
69932;DHT22;57243;52.064;5.116;2023-06-10T09:35:25;21.70;54.60
69932;DHT22;57243;52.064;5.116;2023-06-10T09:37:51;21.70;54.50
69932;DHT22;57243;52.064;5.116;2023-06-10T09:40:17;21.60;54.40
69932;DHT22;57243;52.064;5.116;2023-06-10T09:42:42;21.60;54.50
69932;DHT22;57243;52.064;5.116;2023-06-10T09:45:08;21.70;54.40
69932;DHT22;57243;52.064;5.116;2023-06-10T09:47:33;21.70;54.30
69932;DHT22;57243;52.064;5.116;2023-06-10T09:49:59;21.70;54.60
69932;DHT22;57243;52.064;5.116;2023-06-10T09:52:26;21.70;54.40
69932;DHT22;57243;52.064;5.116;2023-06-10T09:54:52;21.70;54.30
69932;DHT22;57243;52.064;5.116;2023-06-10T09:57:21;21.70;54.30
69932;DHT22;57243;52.064;5.116;2023-06-10T09:59:47;21.70;54.20
69932;DHT22;57243;52.064;5.116;2023-06-10T10:02:13;21.70;54.20
69932;DHT22;57243;52.064;5.116;2023-06-10T10:04:39;21.70;54.10
69932;DHT22;57243;52.064;5.116;2023-06-10T10:07:04;21.70;54.00
69932;DHT22;57243;52.064;5.116;2023-06-10T10:09:32;21.70;53.20
69932;DHT22;57243;52.064;5.116;2023-06-10T10:11:57;21.80;53.50
69932;DHT22;57243;52.064;5.116;2023-06-10T10:14:26;21.80;54.40
69932;DHT22;57243;52.064;5.116;2023-06-10T10:16:52;21.80;54.30
69932;DHT22;57243;52.064;5.116;2023-06-10T10:19:28;21.80;54.70
69932;DHT22;57243;52.064;5.116;2023-06-10T10:21:54;21.80;55.30
69932;DHT22;57243;52.064;5.116;2023-06-10T10:24:23;21.80;55.00
69932;DHT22;57243;52.064;5.116;2023-06-10T10:26:51;21.80;55.50
69932;DHT22;57243;52.064;5.116;2023-06-10T10:29:24;21.80;55.90
69932;DHT22;57243;52.064;5.116;2023-06-10T10:31:52;21.80;56.10
69932;DHT22;57243;52.064;5.116;2023-06-10T10:34:21;21.80;56.80
69932;DHT22;57243;52.064;5.116;2023-06-10T10:36:49;21.80;57.40
69932;DHT22;57243;52.064;5.116;2023-06-10T10:39:15;21.80;57.70
69932;DHT22;57243;52.064;5.116;2023-06-10T10:41:41;21.90;57.70
69932;DHT22;57243;52.064;5.116;2023-06-10T10:44:07;21.90;57.40
69932;DHT22;57243;52.064;5.116;2023-06-10T10:46:43;21.90;57.30
69932;DHT22;57243;52.064;5.116;2023-06-10T10:49:10;21.90;57.10
69932;DHT22;57243;52.064;5.116;2023-06-10T10:51:37;21.90;57.00
69932;DHT22;57243;52.064;5.116;2023-06-10T10:56:38;21.90;57.00
69932;DHT22;57243;52.064;5.116;2023-06-10T10:59:04;21.80;57.10
69932;DHT22;57243;52.064;5.116;2023-06-10T11:01:51;21.80;57.20
69932;DHT22;57243;52.064;5.116;2023-06-10T11:04:17;21.90;57.20
69932;DHT22;57243;52.064;5.116;2023-06-10T11:06:51;21.80;57.30
69932;DHT22;57243;52.064;5.116;2023-06-10T11:09:27;21.80;57.50
69932;DHT22;57243;52.064;5.116;2023-06-10T11:11:56;21.80;57.40
69932;DHT22;57243;52.064;5.116;2023-06-10T11:14:28;21.80;57.40
69932;DHT22;57243;52.064;5.116;2023-06-10T11:16:56;21.80;57.40
69932;DHT22;57243;52.064;5.116;2023-06-10T11:22:17;21.80;57.70
69932;DHT22;57243;52.064;5.116;2023-06-10T11:24:47;21.80;58.00
69932;DHT22;57243;52.064;5.116;2023-06-10T11:27:19;21.90;58.50
69932;DHT22;57243;52.064;5.116;2023-06-10T11:32:40;21.90;59.40
69932;DHT22;57243;52.064;5.116;2023-06-10T11:35:07;21.90;59.30
69932;DHT22;57243;52.064;5.116;2023-06-10T11:37:33;21.90;59.20
69932;DHT22;57243;52.064;5.116;2023-06-10T11:39:59;21.80;59.20
69932;DHT22;57243;52.064;5.116;2023-06-10T11:42:24;21.80;59.30
69932;DHT22;57243;52.064;5.116;2023-06-10T11:44:50;21.80;59.30
69932;DHT22;57243;52.064;5.116;2023-06-10T11:47:16;21.80;59.20
69932;DHT22;57243;52.064;5.116;2023-06-10T11:49:42;21.80;59.50
69932;DHT22;57243;52.064;5.116;2023-06-10T11:52:08;21.80;59.30
69932;DHT22;57243;52.064;5.116;2023-06-10T11:54:33;21.80;59.10
69932;DHT22;57243;52.064;5.116;2023-06-10T11:56:59;21.80;59.20
69932;DHT22;57243;52.064;5.116;2023-06-10T11:59:33;21.80;59.00
69932;DHT22;57243;52.064;5.116;2023-06-10T12:01:59;21.80;60.00
69932;DHT22;57243;52.064;5.116;2023-06-10T12:04:24;21.90;61.20
69932;DHT22;57243;52.064;5.116;2023-06-10T12:06:52;21.90;60.90
69932;DHT22;57243;52.064;5.116;2023-06-10T12:09:22;21.90;60.40
69932;DHT22;57243;52.064;5.116;2023-06-10T12:11:51;21.90;60.00
69932;DHT22;57243;52.064;5.116;2023-06-10T12:17:02;21.80;59.80
69932;DHT22;57243;52.064;5.116;2023-06-10T12:19:28;21.80;59.70
69932;DHT22;57243;52.064;5.116;2023-06-10T12:21:55;21.80;59.50
69932;DHT22;57243;52.064;5.116;2023-06-10T12:24:20;21.80;59.20
69932;DHT22;57243;52.064;5.116;2023-06-10T12:26:46;21.80;59.00
69932;DHT22;57243;52.064;5.116;2023-06-10T12:29:12;21.80;59.00
69932;DHT22;57243;52.064;5.116;2023-06-10T12:34:29;21.80;58.70
69932;DHT22;57243;52.064;5.116;2023-06-10T12:36:55;21.80;58.60
69932;DHT22;57243;52.064;5.116;2023-06-10T12:39:21;21.80;58.40
69932;DHT22;57243;52.064;5.116;2023-06-10T12:41:47;21.70;58.40
69932;DHT22;57243;52.064;5.116;2023-06-10T12:44:13;21.70;58.20
69932;DHT22;57243;52.064;5.116;2023-06-10T12:46:39;21.80;58.10
69932;DHT22;57243;52.064;5.116;2023-06-10T12:49:05;21.70;58.10
69932;DHT22;57243;52.064;5.116;2023-06-10T12:51:30;21.80;57.90
69932;DHT22;57243;52.064;5.116;2023-06-10T12:53:56;21.70;57.80
69932;DHT22;57243;52.064;5.116;2023-06-10T12:56:22;21.80;57.80
69932;DHT22;57243;52.064;5.116;2023-06-10T12:58:49;21.70;57.70
69932;DHT22;57243;52.064;5.116;2023-06-10T13:01:14;21.70;57.60
69932;DHT22;57243;52.064;5.116;2023-06-10T13:03:40;21.70;57.50
69932;DHT22;57243;52.064;5.116;2023-06-10T13:06:06;21.80;57.90
69932;DHT22;57243;52.064;5.116;2023-06-10T13:08:32;21.80;58.00
69932;DHT22;57243;52.064;5.116;2023-06-10T13:10:57;21.80;57.90
69932;DHT22;57243;52.064;5.116;2023-06-10T13:13:23;21.80;58.10
69932;DHT22;57243;52.064;5.116;2023-06-10T13:15:49;21.80;58.10
69932;DHT22;57243;52.064;5.116;2023-06-10T13:18:15;21.80;58.10
69932;DHT22;57243;52.064;5.116;2023-06-10T13:20:44;21.80;58.00
69932;DHT22;57243;52.064;5.116;2023-06-10T13:23:09;21.80;58.00
69932;DHT22;57243;52.064;5.116;2023-06-10T13:25:35;21.80;57.80
69932;DHT22;57243;52.064;5.116;2023-06-10T13:28:01;21.80;57.90
69932;DHT22;57243;52.064;5.116;2023-06-10T13:30:26;21.80;58.20
69932;DHT22;57243;52.064;5.116;2023-06-10T13:32:53;21.80;58.10
69932;DHT22;57243;52.064;5.116;2023-06-10T13:35:18;21.90;58.30
69932;DHT22;57243;52.064;5.116;2023-06-10T13:37:44;21.90;58.30
69932;DHT22;57243;52.064;5.116;2023-06-10T13:40:10;21.90;58.50
69932;DHT22;57243;52.064;5.116;2023-06-10T13:42:35;21.90;58.60
69932;DHT22;57243;52.064;5.116;2023-06-10T13:45:02;21.90;58.60
69932;DHT22;57243;52.064;5.116;2023-06-10T13:47:30;21.90;58.70
69932;DHT22;57243;52.064;5.116;2023-06-10T13:49:57;21.90;58.60
69932;DHT22;57243;52.064;5.116;2023-06-10T13:52:22;21.90;58.70
69932;DHT22;57243;52.064;5.116;2023-06-10T13:54:48;21.90;59.00
69932;DHT22;57243;52.064;5.116;2023-06-10T13:57:15;21.90;59.10
69932;DHT22;57243;52.064;5.116;2023-06-10T13:59:40;21.90;59.20
69932;DHT22;57243;52.064;5.116;2023-06-10T14:02:06;21.90;59.10
69932;DHT22;57243;52.064;5.116;2023-06-10T14:04:31;21.90;59.10
69932;DHT22;57243;52.064;5.116;2023-06-10T14:06:57;21.90;59.10
69932;DHT22;57243;52.064;5.116;2023-06-10T14:09:25;21.90;59.00
69932;DHT22;57243;52.064;5.116;2023-06-10T14:11:50;21.90;58.80
69932;DHT22;57243;52.064;5.116;2023-06-10T14:14:16;21.90;58.80
69932;DHT22;57243;52.064;5.116;2023-06-10T14:16:42;21.90;58.80
69932;DHT22;57243;52.064;5.116;2023-06-10T14:19:10;21.90;58.80
69932;DHT22;57243;52.064;5.116;2023-06-10T14:21:36;21.90;58.80
69932;DHT22;57243;52.064;5.116;2023-06-10T14:24:01;21.90;58.80
69932;DHT22;57243;52.064;5.116;2023-06-10T14:26:27;21.90;59.20
69932;DHT22;57243;52.064;5.116;2023-06-10T14:28:53;21.90;59.20
69932;DHT22;57243;52.064;5.116;2023-06-10T14:31:19;21.90;59.10
69932;DHT22;57243;52.064;5.116;2023-06-10T14:33:46;21.90;59.40
69932;DHT22;57243;52.064;5.116;2023-06-10T14:36:11;22.10;62.90
69932;DHT22;57243;52.064;5.116;2023-06-10T14:38:37;22.20;65.20
69932;DHT22;57243;52.064;5.116;2023-06-10T14:41:03;22.40;65.30
69932;DHT22;57243;52.064;5.116;2023-06-10T14:43:28;22.30;64.50
69932;DHT22;57243;52.064;5.116;2023-06-10T14:45:53;22.20;64.40
69932;DHT22;57243;52.064;5.116;2023-06-10T14:48:21;22.20;63.90
69932;DHT22;57243;52.064;5.116;2023-06-10T14:50:46;22.10;63.90
69932;DHT22;57243;52.064;5.116;2023-06-10T14:53:18;22.10;63.90
69932;DHT22;57243;52.064;5.116;2023-06-10T14:55:44;22.10;63.60
69932;DHT22;57243;52.064;5.116;2023-06-10T14:58:09;22.10;63.50
69932;DHT22;57243;52.064;5.116;2023-06-10T15:00:35;22.10;62.90
69932;DHT22;57243;52.064;5.116;2023-06-10T15:03:00;22.10;62.80
69932;DHT22;57243;52.064;5.116;2023-06-10T15:05:26;22.00;62.80
69932;DHT22;57243;52.064;5.116;2023-06-10T15:07:51;22.00;62.80
69932;DHT22;57243;52.064;5.116;2023-06-10T15:10:17;22.00;62.40
69932;DHT22;57243;52.064;5.116;2023-06-10T15:12:43;22.00;62.00
69932;DHT22;57243;52.064;5.116;2023-06-10T15:15:08;22.00;61.80
69932;DHT22;57243;52.064;5.116;2023-06-10T15:17:34;22.00;61.60
69932;DHT22;57243;52.064;5.116;2023-06-10T15:20:00;22.00;61.50
69932;DHT22;57243;52.064;5.116;2023-06-10T15:22:25;22.00;61.70
69932;DHT22;57243;52.064;5.116;2023-06-10T15:24:51;22.00;61.10
69932;DHT22;57243;52.064;5.116;2023-06-10T15:27:16;22.00;61.00
69932;DHT22;57243;52.064;5.116;2023-06-10T15:29:42;22.00;61.00
69932;DHT22;57243;52.064;5.116;2023-06-10T15:32:07;22.00;60.90
69932;DHT22;57243;52.064;5.116;2023-06-10T15:34:33;22.00;60.70
69932;DHT22;57243;52.064;5.116;2023-06-10T15:36:58;22.00;60.70
69932;DHT22;57243;52.064;5.116;2023-06-10T15:39:24;22.00;60.50
69932;DHT22;57243;52.064;5.116;2023-06-10T15:41:51;22.00;60.30